RJDB(METAR)
10/16 18:00
RJDB 160900Z 05014KT 9999 FEW035 18/13 Q1022 RMK A3018=
戻る
トップページへ戻る
IMOC Co,.Ltd.